Time;durP1;ratioP1;P1;durP2;ratioP2;P2;SDS_P1;SDS_P2;PMS_P1;PMS_P2;Temp;Humidity;BMP_temperature;BMP_pressure;BME280_temperature;BME280_humidity;BME280_pressure;Samples;Min_cycle;Max_cycle;Signal;HPM_P1;HPM_P2
2023/03/24 00:02:08;;;;;;;;;;;;;;;6.94;88.53;99650.94;5092627;28;19916;-69
2023/03/24 00:04:34;;;;;;;;;;;;;;;6.87;89.49;99649.38;5093723;28;19920;-69
2023/03/24 00:07:03;;;;;;;;;;;;;;;6.52;91.17;99636.94;5092642;28;19927;-69
2023/03/24 00:09:28;;;;;;;;;;;;;;;6.37;92.88;99647.19;5093798;28;20453;-69
2023/03/24 00:11:54;;;;;;;;;;;;;;;6.27;92.48;99641.78;5093951;28;19912;-69
2023/03/24 00:14:19;;;;;;;;;;;;;;;6.09;93.24;99640.69;5093769;28;19912;-69
2023/03/24 00:16:45;;;;;;;;;;;;;;;6.00;93.35;99641.31;5090440;28;19970;-69
2023/03/24 00:19:13;;;;;;;;;;;;;;;6.00;93.50;99629.41;5087647;28;19916;-69
2023/03/24 00:21:40;;;;;;;;;;;;;;;5.93;94.43;99627.00;5093865;28;19969;-69
2023/03/24 00:24:09;;;;;;;;;;;;;;;5.82;95.28;99623.53;5093461;28;20370;-68
2023/03/24 00:26:38;;;;;;;;;;;;;;;5.80;96.02;99619.41;5075209;28;19955;-69
2023/03/24 00:29:04;;;;;;;;;;;;;;;5.70;95.88;99634.25;5074888;28;19920;-68
2023/03/24 00:31:30;;;;;;;;;;;;;;;5.60;96.75;99635.22;5093436;28;19912;-69
2023/03/24 00:33:55;;;;;;;;;;;;;;;5.45;97.23;99636.22;5090298;28;19924;-69
2023/03/24 00:36:21;;;;;;;;;;;;;;;5.33;97.44;99631.94;5072955;28;20255;-69
2023/03/24 00:38:47;;;;;;;;;;;;;;;5.14;99.31;99618.00;5073112;28;19998;-69
2023/03/24 00:41:13;;;;;;;;;;;;;;;4.96;99.53;99621.56;5074148;28;20398;-69
2023/03/24 00:43:38;;;;;;;;;;;;;;;4.96;99.81;99624.34;5092635;28;20378;-68
2023/03/24 00:46:09;;;;;;;;;;;;;;;5.06;99.71;99618.66;5092799;28;19912;-68
2023/03/24 00:48:37;;;;;;;;;;;;;;;5.15;99.11;99625.22;5092966;28;19927;-68
2023/03/24 00:51:03;;;;;;;;;;;;;;;5.31;97.34;99617.53;5074904;28;19924;-69
2023/03/24 00:53:30;;;;;;;;;;;;;;;5.47;95.55;99609.84;5074672;28;21767;-68
2023/03/24 00:55:57;;;;;;;;;;;;;;;5.75;93.81;99610.03;5072538;28;19916;-68
2023/03/24 00:58:22;;;;;;;;;;;;;;;5.62;92.79;99613.53;5060851;28;19955;-68
2023/03/24 01:00:49;;;;;;;;;;;;;;;5.57;92.92;99614.44;5092355;28;20405;-69
2023/03/24 01:03:15;;;;;;;;;;;;;;;5.55;93.10;99615.84;5074368;28;19912;-69
2023/03/24 01:05:41;;;;;;;;;;;;;;;5.25;94.39;99617.91;5074571;28;19912;-69
2023/03/24 01:08:07;;;;;;;;;;;;;;;5.24;96.08;99610.69;5090854;28;19977;-69
2023/03/24 01:10:34;;;;;;;;;;;;;;;5.17;96.12;99606.31;5091066;28;20359;-69
2023/03/24 01:13:00;;;;;;;;;;;;;;;5.02;96.92;99599.03;5093062;28;19927;-69
2023/03/24 01:15:28;;;;;;;;;;;;;;;5.17;97.51;99600.78;5092695;28;20329;-69
2023/03/24 01:17:54;;;;;;;;;;;;;;;5.38;96.56;99594.97;5092542;28;19939;-69
2023/03/24 01:20:21;;;;;;;;;;;;;;;5.65;96.09;99595.47;5092323;28;19912;-70
2023/03/24 01:22:47;;;;;;;;;;;;;;;5.77;93.93;99576.41;5090746;28;19945;-69
2023/03/24 01:25:15;;;;;;;;;;;;;;;5.82;93.77;99576.34;5073566;28;19916;-69
2023/03/24 01:27:41;;;;;;;;;;;;;;;6.14;92.79;99574.78;5072617;28;19923;-70
2023/03/24 01:30:07;;;;;;;;;;;;;;;6.31;92.19;99577.00;5092377;28;19943;-68
2023/03/24 01:32:33;;;;;;;;;;;;;;;6.12;91.41;99573.41;5091453;28;20355;-69
2023/03/24 01:34:58;;;;;;;;;;;;;;;5.95;92.04;99577.53;5092291;28;19938;-68
2023/03/24 01:37:24;;;;;;;;;;;;;;;5.68;94.57;99576.28;5088964;28;20002;-68
2023/03/24 01:39:49;;;;;;;;;;;;;;;5.54;95.91;99583.66;5092399;28;19916;-68
2023/03/24 01:42:17;;;;;;;;;;;;;;;5.42;97.51;99579.38;5085699;28;19928;-69
2023/03/24 01:44:45;;;;;;;;;;;;;;;5.26;98.61;99572.41;5085090;28;20236;-70
2023/03/24 01:47:10;;;;;;;;;;;;;;;5.45;98.45;99573.25;5092056;28;19930;-71
2023/03/24 01:49:39;;;;;;;;;;;;;;;5.28;98.06;99578.47;5092328;28;19916;-69
2023/03/24 01:52:08;;;;;;;;;;;;;;;4.97;99.65;99574.13;5082705;28;19927;-68
2023/03/24 01:54:39;;;;;;;;;;;;;;;4.94;99.51;99571.94;5072097;28;19927;-68
2023/03/24 01:57:13;;;;;;;;;;;;;;;4.94;97.06;99568.34;5087570;28;19912;-68
2023/03/24 01:59:44;;;;;;;;;;;;;;;4.67;98.88;99569.75;5090712;28;20393;-68
2023/03/24 02:02:12;;;;;;;;;;;;;;;4.67;99.55;99569.75;5091705;28;20028;-69
2023/03/24 02:04:42;;;;;;;;;;;;;;;4.64;99.26;99566.44;5091811;28;20278;-69
2023/03/24 02:07:21;;;;;;;;;;;;;;;4.47;100.00;99566.06;5090153;28;19923;-70
2023/03/24 02:09:47;;;;;;;;;;;;;;;4.58;100.00;99573.13;5091745;28;19916;-69
2023/03/24 02:12:12;;;;;;;;;;;;;;;4.51;100.00;99572.66;5074086;28;19919;-68
2023/03/24 02:14:38;;;;;;;;;;;;;;;4.54;100.00;99571.28;5092269;28;19913;-68
2023/03/24 02:17:07;;;;;;;;;;;;;;;4.37;100.00;99568.94;5086078;28;19916;-68
2023/03/24 02:19:43;;;;;;;;;;;;;;;4.45;100.00;99571.06;5095868;28;19955;-69
2023/03/24 02:22:27;;;;;;;;;;;;;;;4.49;99.10;99574.91;5094330;28;19912;-68
2023/03/24 02:25:01;;;;;;;;;;;;;;;4.57;98.29;99571.50;5111727;28;19916;-69
2023/03/24 02:27:44;;;;;;;;;;;;;;;4.63;96.73;99589.72;5111654;28;19916;-68
2023/03/24 02:30:19;;;;;;;;;;;;;;;4.42;94.99;99591.03;5092010;28;19973;-69
2023/03/24 02:32:59;;;;;;;;;;;;;;;4.22;95.45;99582.63;5094825;28;19916;-70
2023/03/24 02:35:37;;;;;;;;;;;;;;;4.14;96.19;99594.31;5095402;28;19915;-69
2023/03/24 02:38:06;;;;;;;;;;;;;;;4.05;98.20;99594.09;5095313;28;19912;-68
2023/03/24 02:40:50;;;;;;;;;;;;;;;3.92;98.74;99605.81;5076312;28;19923;-69
2023/03/24 02:43:19;;;;;;;;;;;;;;;3.72;99.48;99602.06;5093766;28;19920;-69
2023/03/24 02:45:57;;;;;;;;;;;;;;;3.70;100.00;99598.75;5094868;28;19965;-69
2023/03/24 02:48:29;;;;;;;;;;;;;;;3.90;100.00;99608.06;5095015;28;20430;-69
2023/03/24 02:51:15;;;;;;;;;;;;;;;3.99;98.67;99611.88;5074995;28;19920;-69
2023/03/24 02:53:50;;;;;;;;;;;;;;;4.29;97.63;99609.97;5065146;28;20003;-68
2023/03/24 02:56:22;;;;;;;;;;;;;;;4.00;96.29;99616.28;5095515;28;19916;-68
2023/03/24 02:58:50;;;;;;;;;;;;;;;4.00;97.38;99624.59;5087259;28;20391;-68
2023/03/24 03:01:16;;;;;;;;;;;;;;;4.06;97.35;99626.19;5075834;28;19947;-69
2023/03/24 03:03:49;;;;;;;;;;;;;;;4.08;96.71;99623.16;5090415;28;20394;-69
2023/03/24 03:06:17;;;;;;;;;;;;;;;3.76;99.02;99621.69;5089184;28;20402;-69
2023/03/24 03:08:46;;;;;;;;;;;;;;;3.70;100.00;99626.44;5094920;28;19924;-69
2023/03/24 03:11:13;;;;;;;;;;;;;;;3.76;100.00;99628.06;5076719;28;20011;-68
2023/03/24 03:13:42;;;;;;;;;;;;;;;3.81;100.00;99634.66;5094904;28;20029;-69
2023/03/24 03:16:20;;;;;;;;;;;;;;;3.65;100.00;99641.09;5076655;28;19912;-69
2023/03/24 03:18:50;;;;;;;;;;;;;;;3.46;100.00;99643.69;5090260;28;19916;-69
2023/03/24 03:21:18;;;;;;;;;;;;;;;3.48;100.00;99651.72;5082282;28;19999;-69
2023/03/24 03:23:46;;;;;;;;;;;;;;;3.53;100.00;99637.03;5093613;28;19981;-69
2023/03/24 03:26:15;;;;;;;;;;;;;;;3.88;100.00;99621.34;5094446;28;19977;-69
2023/03/24 03:28:48;;;;;;;;;;;;;;;4.27;100.00;99617.75;5094446;28;19927;-69
2023/03/24 03:31:17;;;;;;;;;;;;;;;4.58;100.00;99617.47;5094374;28;19923;-69
2023/03/24 03:33:45;;;;;;;;;;;;;;;4.80;99.83;99604.25;5093557;28;19923;-69
2023/03/24 03:36:14;;;;;;;;;;;;;;;4.97;98.12;99601.03;5076228;28;20318;-69
2023/03/24 03:39:00;;;;;;;;;;;;;;;4.76;96.46;99587.38;5106524;28;19924;-69
2023/03/24 03:41:25;;;;;;;;;;;;;;;4.97;95.68;99579.66;5074636;28;19989;-69
2023/03/24 03:43:51;;;;;;;;;;;;;;;5.19;93.92;99576.38;5092894;28;19974;-69
2023/03/24 03:46:17;;;;;;;;;;;;;;;5.37;93.27;99578.63;5094338;28;19931;-68
2023/03/24 03:48:42;;;;;;;;;;;;;;;5.46;91.80;99571.28;5093847;28;20389;-70
2023/03/24 03:51:08;;;;;;;;;;;;;;;5.52;91.38;99570.13;5094247;28;20011;-69
2023/03/24 03:53:39;;;;;;;;;;;;;;;5.59;90.27;99567.78;5094340;28;19966;-69
2023/03/24 03:56:06;;;;;;;;;;;;;;;5.46;90.05;99569.34;5092949;28;19916;-69
2023/03/24 03:58:31;;;;;;;;;;;;;;;5.65;89.23;99570.50;5089583;28;19967;-69
2023/03/24 04:00:57;;;;;;;;;;;;;;;5.76;88.38;99570.03;5087580;28;19950;-68
2023/03/24 04:03:38;;;;;;;;;;;;;;;5.75;87.37;99562.84;5103696;28;20333;-69
2023/03/24 04:06:24;;;;;;;;;;;;;;;5.76;87.35;99567.25;5109817;28;20340;-68
2023/03/24 04:08:52;;;;;;;;;;;;;;;5.79;86.57;99574.16;5093409;28;20419;-69
2023/03/24 04:11:32;;;;;;;;;;;;;;;5.55;87.21;99577.00;5093858;28;19916;-69
2023/03/24 04:14:15;;;;;;;;;;;;;;;5.41;87.06;99582.47;5085925;28;20361;-69
2023/03/24 04:17:00;;;;;;;;;;;;;;;5.25;86.28;99577.13;5074300;28;19923;-69
2023/03/24 04:19:43;;;;;;;;;;;;;;;5.15;86.94;99575.28;5093767;28;19978;-69
2023/03/24 04:22:12;;;;;;;;;;;;;;;4.82;87.79;99577.88;5093494;28;19916;-69
2023/03/24 04:24:48;;;;;;;;;;;;;;;4.83;88.88;99582.34;5097801;28;20028;-68
2023/03/24 04:27:37;;;;;;;;;;;;;;;5.03;88.48;99577.66;5087061;28;20007;-69
2023/03/24 04:30:05;;;;;;;;;;;;;;;5.22;87.31;99576.91;5072872;28;19919;-69
2023/03/24 04:32:40;;;;;;;;;;;;;;;5.14;87.59;99573.63;5093648;28;19916;-69
2023/03/24 04:35:11;;;;;;;;;;;;;;;5.31;87.78;99570.38;5109299;28;19969;-68
2023/03/24 04:37:37;;;;;;;;;;;;;;;5.35;87.32;99584.50;5092238;28;19950;-69
2023/03/24 04:40:09;;;;;;;;;;;;;;;4.90;89.21;99584.75;5074919;28;19959;-68
2023/03/24 04:42:46;;;;;;;;;;;;;;;4.86;89.98;99590.06;5093030;28;19927;-69
2023/03/24 04:45:12;;;;;;;;;;;;;;;4.99;91.00;99593.25;5080494;28;19916;-69
2023/03/24 04:47:52;;;;;;;;;;;;;;;5.11;90.14;99596.44;5085406;28;19928;-68
2023/03/24 04:50:29;;;;;;;;;;;;;;;4.52;92.39;99602.03;5088235;28;19955;-68
2023/03/24 04:52:54;;;;;;;;;;;;;;;4.23;95.62;99600.06;5091523;28;19920;-69
2023/03/24 04:55:26;;;;;;;;;;;;;;;4.41;93.71;99611.53;5059162;28;19982;-69
2023/03/24 04:57:52;;;;;;;;;;;;;;;4.12;93.28;99606.81;5074397;28;19912;-69
2023/03/24 05:00:17;;;;;;;;;;;;;;;3.98;94.32;99609.38;5073126;28;19912;-69
2023/03/24 05:02:44;;;;;;;;;;;;;;;3.87;94.91;99611.41;5082556;28;20145;-69
2023/03/24 05:05:09;;;;;;;;;;;;;;;3.99;95.68;99613.81;5082298;28;20383;-69
2023/03/24 05:07:35;;;;;;;;;;;;;;;4.10;97.37;99620.91;5089438;28;19955;-69
2023/03/24 05:10:00;;;;;;;;;;;;;;;4.61;95.94;99613.28;5111383;28;20386;-69
2023/03/24 05:12:25;;;;;;;;;;;;;;;4.50;95.17;99621.69;5112401;28;19912;-69
2023/03/24 05:14:51;;;;;;;;;;;;;;;4.48;96.81;99631.44;5074022;28;19916;-67
2023/03/24 05:17:16;;;;;;;;;;;;;;;4.49;97.93;99633.09;5092092;28;19919;-69
2023/03/24 05:19:41;;;;;;;;;;;;;;;4.57;97.48;99628.84;5091920;28;19977;-69
2023/03/24 05:22:06;;;;;;;;;;;;;;;4.59;97.91;99629.38;5073876;28;19918;-69
2023/03/24 05:24:33;;;;;;;;;;;;;;;4.81;96.78;99630.84;5083507;28;20326;-68
2023/03/24 05:26:59;;;;;;;;;;;;;;;4.79;97.09;99628.38;5091489;28;19920;-69
2023/03/24 05:29:24;;;;;;;;;;;;;;;4.92;96.86;99633.22;5091512;28;19989;-68
2023/03/24 05:31:49;;;;;;;;;;;;;;;5.30;96.21;99642.78;5073891;28;20435;-69
2023/03/24 05:34:15;;;;;;;;;;;;;;;5.40;95.68;99639.09;5071703;28;19916;-69
2023/03/24 05:36:40;;;;;;;;;;;;;;;5.13;97.38;99635.78;5091583;28;20068;-68
2023/03/24 05:39:05;;;;;;;;;;;;;;;5.16;98.03;99634.38;5088907;28;19965;-68
2023/03/24 05:41:31;;;;;;;;;;;;;;;5.11;98.98;99640.78;5097923;28;19924;-71
2023/03/24 05:43:56;;;;;;;;;;;;;;;4.78;99.94;99637.78;5103384;28;19916;-70
2023/03/24 05:46:21;;;;;;;;;;;;;;;4.75;100.00;99647.50;5082356;28;20391;-71
2023/03/24 05:48:47;;;;;;;;;;;;;;;4.70;100.00;99646.72;5088007;28;20035;-70
2023/03/24 05:51:12;;;;;;;;;;;;;;;4.92;100.00;99640.72;5088555;28;19924;-72
2023/03/24 05:53:37;;;;;;;;;;;;;;;5.20;100.00;99649.28;5080849;28;19920;-72
2023/03/24 05:56:04;;;;;;;;;;;;;;;5.45;100.00;99648.16;5088321;28;19927;-72
2023/03/24 05:58:33;;;;;;;;;;;;;;;5.70;100.00;99648.13;5096658;28;19919;-71
2023/03/24 06:00:58;;;;;;;;;;;;;;;5.82;100.00;99647.69;5098044;28;19912;-72
2023/03/24 06:03:24;;;;;;;;;;;;;;;5.99;99.38;99649.97;5096483;28;19920;-72
2023/03/24 06:05:49;;;;;;;;;;;;;;;6.29;98.45;99651.47;5093133;28;20814;-72
2023/03/24 06:08:15;;;;;;;;;;;;;;;6.85;94.07;99659.19;5096582;28;20014;-72
2023/03/24 06:10:41;;;;;;;;;;;;;;;6.97;93.05;99650.34;5092181;28;19921;-73
2023/03/24 06:13:07;;;;;;;;;;;;;;;6.87;93.51;99651.34;5092657;28;20289;-73
2023/03/24 06:15:33;;;;;;;;;;;;;;;7.06;93.13;99651.28;5089785;28;19920;-72
2023/03/24 06:17:59;;;;;;;;;;;;;;;7.10;92.94;99651.50;5096220;28;19916;-72
2023/03/24 06:20:26;;;;;;;;;;;;;;;7.58;90.52;99655.81;5096925;28;20337;-71
2023/03/24 06:22:53;;;;;;;;;;;;;;;7.43;89.52;99666.13;5089140;28;20445;-71
2023/03/24 06:25:21;;;;;;;;;;;;;;;7.40;90.85;99660.38;5095744;28;20004;-74
2023/03/24 06:27:46;;;;;;;;;;;;;;;7.30;91.35;99653.06;5085357;28;19931;-73
2023/03/24 06:30:14;;;;;;;;;;;;;;;7.33;92.15;99665.53;5095498;28;19916;-74
2023/03/24 06:32:39;;;;;;;;;;;;;;;7.50;91.24;99667.69;5078922;28;19916;-72
2023/03/24 06:35:06;;;;;;;;;;;;;;;8.03;90.51;99665.47;5098348;28;20010;-73
2023/03/24 06:37:31;;;;;;;;;;;;;;;8.21;88.18;99660.88;5098259;28;19938;-72
2023/03/24 06:39:56;;;;;;;;;;;;;;;8.27;85.85;99663.22;5067550;28;19916;-71
2023/03/24 06:42:22;;;;;;;;;;;;;;;8.90;85.06;99661.72;5097387;28;19920;-72
2023/03/24 06:44:47;;;;;;;;;;;;;;;9.13;83.04;99666.13;5095590;28;20002;-73
2023/03/24 06:47:12;;;;;;;;;;;;;;;9.40;81.39;99660.66;5076256;28;19997;-71
2023/03/24 06:49:37;;;;;;;;;;;;;;;9.50;81.71;99665.13;5073220;28;19931;-71
2023/03/24 06:52:03;;;;;;;;;;;;;;;9.42;80.90;99663.94;5091824;28;20127;-70
2023/03/24 06:54:28;;;;;;;;;;;;;;;9.64;79.95;99657.44;5087146;28;19915;-69
2023/03/24 06:56:54;;;;;;;;;;;;;;;10.05;79.54;99658.19;5090224;28;20324;-70
2023/03/24 06:59:22;;;;;;;;;;;;;;;10.44;77.46;99661.19;5092714;28;19916;-71
2023/03/24 07:01:48;;;;;;;;;;;;;;;10.76;77.17;99659.03;5094850;28;19999;-71
2023/03/24 07:04:14;;;;;;;;;;;;;;;10.92;75.07;99650.94;5094559;28;20048;-69
2023/03/24 07:06:41;;;;;;;;;;;;;;;11.06;76.10;99661.94;5089683;28;19916;-73
2023/03/24 07:09:06;;;;;;;;;;;;;;;10.98;76.47;99657.19;5095047;27;19973;-72
2023/03/24 07:11:32;;;;;;;;;;;;;;;11.27;75.45;99663.16;5094399;28;19920;-72
2023/03/24 07:13:57;;;;;;;;;;;;;;;11.44;75.36;99665.91;5058874;28;19919;-73
2023/03/24 07:16:22;;;;;;;;;;;;;;;11.38;72.49;99668.09;5088876;28;19912;-74
2023/03/24 07:18:47;;;;;;;;;;;;;;;11.40;72.69;99664.13;5088342;28;20354;-73
2023/03/24 07:21:13;;;;;;;;;;;;;;;11.50;73.81;99672.16;5090612;28;20395;-73
2023/03/24 07:23:38;;;;;;;;;;;;;;;11.42;73.68;99673.00;5086787;28;20370;-72
2023/03/24 07:26:03;;;;;;;;;;;;;;;11.51;73.83;99671.00;5094925;28;19969;-73
2023/03/24 07:28:29;;;;;;;;;;;;;;;11.64;72.21;99669.94;5088884;28;19920;-76
2023/03/24 07:30:54;;;;;;;;;;;;;;;11.91;71.46;99664.19;5097884;27;19935;-76
2023/03/24 07:33:23;;;;;;;;;;;;;;;11.72;70.52;99673.03;5093880;28;20003;-76
2023/03/24 07:35:48;;;;;;;;;;;;;;;11.87;69.94;99675.25;5101415;27;19917;-76
2023/03/24 07:38:13;;;;;;;;;;;;;;;12.05;69.80;99673.19;5083881;28;20010;-76
2023/03/24 07:40:38;;;;;;;;;;;;;;;12.24;68.47;99666.28;5088828;28;20379;-76
2023/03/24 07:43:04;;;;;;;;;;;;;;;12.35;68.05;99661.91;5084447;28;19989;-75
2023/03/24 07:45:30;;;;;;;;;;;;;;;12.49;68.60;99655.22;5092290;28;19935;-76
2023/03/24 07:48:00;;;;;;;;;;;;;;;12.53;68.30;99658.97;5082022;28;19969;-75
2023/03/24 07:50:26;;;;;;;;;;;;;;;12.71;68.66;99654.03;5079643;28;19916;-76
2023/03/24 07:52:51;;;;;;;;;;;;;;;12.86;67.18;99648.91;5081069;28;19923;-75
2023/03/24 07:55:16;;;;;;;;;;;;;;;13.05;66.17;99646.41;5055881;28;19912;-76
2023/03/24 07:57:44;;;;;;;;;;;;;;;12.72;64.81;99658.47;5087314;28;20394;-75
2023/03/24 08:00:19;;;;;;;;;;;;;;;12.47;67.05;99658.34;5076128;28;19927;-75
2023/03/24 08:02:45;;;;;;;;;;;;;;;13.04;68.35;99650.38;5094055;28;19916;-76
2023/03/24 08:05:13;;;;;;;;;;;;;;;13.17;65.97;99650.41;5094078;28;19912;-76
2023/03/24 08:07:42;;;;;;;;;;;;;;;13.18;66.30;99646.44;5093888;28;20472;-75
2023/03/24 08:10:11;;;;;;;;;;;;;;;13.05;66.51;99642.75;5094162;28;19912;-76
2023/03/24 08:12:37;;;;;;;;;;;;;;;13.26;66.37;99634.25;5093166;28;19918;-76
2023/03/24 08:15:02;;;;;;;;;;;;;;;13.42;67.79;99639.19;5092631;28;20011;-75
2023/03/24 08:17:28;;;;;;;;;;;;;;;13.52;64.58;99633.16;5093694;28;20311;-75
2023/03/24 08:19:53;;;;;;;;;;;;;;;13.86;63.13;99636.63;5093868;28;20302;-76
2023/03/24 08:22:19;;;;;;;;;;;;;;;14.08;63.65;99631.66;5093721;28;19913;-75
2023/03/24 08:24:44;;;;;;;;;;;;;;;14.24;63.63;99626.13;5093656;28;19916;-76
2023/03/24 08:27:09;;;;;;;;;;;;;;;14.53;62.22;99626.16;5093335;28;19923;-76
2023/03/24 08:29:34;;;;;;;;;;;;;;;14.59;61.04;99625.53;5108193;28;20020;-75
2023/03/24 08:32:00;;;;;;;;;;;;;;;14.46;60.49;99624.75;5093598;28;20370;-76
2023/03/24 08:34:26;;;;;;;;;;;;;;;14.40;60.62;99622.53;5093646;28;19919;-76
2023/03/24 08:36:51;;;;;;;;;;;;;;;14.45;60.37;99619.50;5093272;28;19999;-76
2023/03/24 08:39:16;;;;;;;;;;;;;;;14.65;62.48;99614.00;5093515;28;20298;-76
2023/03/24 08:41:42;;;;;;;;;;;;;;;14.70;62.61;99611.75;5093117;28;20034;-76
2023/03/24 08:44:09;;;;;;;;;;;;;;;14.87;60.61;99618.28;5092679;28;19973;-76
2023/03/24 08:46:34;;;;;;;;;;;;;;;15.15;59.87;99618.22;5091500;28;19943;-73
2023/03/24 08:49:01;;;;;;;;;;;;;;;15.07;58.68;99607.94;5092865;28;20371;-73
2023/03/24 08:51:26;;;;;;;;;;;;;;;15.19;58.97;99609.84;5092698;28;19927;-73
2023/03/24 08:53:52;;;;;;;;;;;;;;;15.61;59.08;99607.66;5091336;28;19916;-73
2023/03/24 08:56:18;;;;;;;;;;;;;;;15.92;57.36;99608.78;5092909;28;20370;-73
2023/03/24 08:58:47;;;;;;;;;;;;;;;15.65;58.13;99600.91;5091946;28;20406;-73
2023/03/24 09:01:12;;;;;;;;;;;;;;;15.48;57.21;99604.09;5092922;28;19916;-73
2023/03/24 09:03:38;;;;;;;;;;;;;;;15.84;56.16;99596.50;5087384;28;19939;-73
2023/03/24 09:06:03;;;;;;;;;;;;;;;15.99;55.60;99597.66;5092775;28;20275;-73
2023/03/24 09:08:29;;;;;;;;;;;;;;;15.95;53.93;99591.94;5092227;28;19927;-73
2023/03/24 09:10:54;;;;;;;;;;;;;;;15.98;56.39;99590.41;5073333;28;19916;-74
2023/03/24 09:13:20;;;;;;;;;;;;;;;16.07;55.00;99591.00;5092670;28;20030;-73
2023/03/24 09:15:52;;;;;;;;;;;;;;;16.12;54.53;99584.25;5092513;28;19917;-73
2023/03/24 09:18:18;;;;;;;;;;;;;;;16.12;55.72;99585.06;5092492;28;19916;-73
2023/03/24 09:20:44;;;;;;;;;;;;;;;16.18;55.31;99588.41;5073016;28;19920;-73
2023/03/24 09:23:10;;;;;;;;;;;;;;;16.50;54.09;99578.97;5092566;28;20391;-73
2023/03/24 09:25:35;;;;;;;;;;;;;;;16.51;53.88;99574.94;5092214;28;19918;-73
2023/03/24 09:28:01;;;;;;;;;;;;;;;15.91;53.26;99567.66;5092414;28;19967;-73
2023/03/24 09:30:26;;;;;;;;;;;;;;;15.78;54.42;99569.78;5091538;28;20000;-72
2023/03/24 09:32:51;;;;;;;;;;;;;;;15.88;53.67;99574.00;5092313;28;19952;-73
2023/03/24 09:35:17;;;;;;;;;;;;;;;16.41;54.75;99565.91;5092205;28;20329;-73
2023/03/24 09:37:42;;;;;;;;;;;;;;;16.21;52.93;99564.28;5090698;28;19916;-73
2023/03/24 09:40:16;;;;;;;;;;;;;;;16.20;52.45;99557.00;5092593;28;20327;-73
2023/03/24 09:42:42;;;;;;;;;;;;;;;16.75;52.62;99547.56;5092095;28;19924;-73
2023/03/24 09:45:19;;;;;;;;;;;;;;;16.93;52.29;99545.88;5091905;28;19916;-72
2023/03/24 09:48:04;;;;;;;;;;;;;;;17.06;50.28;99548.56;5076661;28;19981;-71
2023/03/24 09:50:34;;;;;;;;;;;;;;;17.01;50.63;99544.03;5082968;28;19929;-70
2023/03/24 09:53:03;;;;;;;;;;;;;;;16.92;51.93;99543.44;5083578;28;19920;-71
2023/03/24 09:55:29;;;;;;;;;;;;;;;17.12;52.34;99545.03;5074185;28;20416;-71
2023/03/24 09:58:03;;;;;;;;;;;;;;;17.29;50.61;99530.75;5089719;28;19952;-71
2023/03/24 10:00:33;;;;;;;;;;;;;;;17.56;51.20;99536.41;5089269;28;20409;-72
2023/03/24 10:03:12;;;;;;;;;;;;;;;17.61;47.66;99527.59;5091198;28;19924;-72
2023/03/24 10:05:43;;;;;;;;;;;;;;;17.56;49.34;99525.94;5090719;28;19916;-72
2023/03/24 10:08:14;;;;;;;;;;;;;;;17.48;48.78;99515.69;5070470;28;20019;-72
2023/03/24 10:10:47;;;;;;;;;;;;;;;17.71;48.41;99509.97;5091645;28;19916;-72
2023/03/24 10:13:19;;;;;;;;;;;;;;;17.85;46.44;99514.19;5073005;28;19916;-72
2023/03/24 10:15:57;;;;;;;;;;;;;;;18.10;46.22;99517.38;5090851;28;19920;-72
2023/03/24 10:18:35;;;;;;;;;;;;;;;18.00;46.73;99524.50;5090191;28;19947;-72
2023/03/24 10:21:01;;;;;;;;;;;;;;;17.86;47.36;99512.97;5083786;28;19916;-72
2023/03/24 10:23:39;;;;;;;;;;;;;;;18.05;47.53;99517.72;5098385;28;20275;-72
2023/03/24 10:26:04;;;;;;;;;;;;;;;18.49;45.79;99516.19;5089399;28;20007;-72
2023/03/24 10:28:35;;;;;;;;;;;;;;;18.51;44.74;99499.63;5075557;28;20016;-72
2023/03/24 10:31:04;;;;;;;;;;;;;;;18.39;46.68;99506.38;5082017;28;19931;-72
2023/03/24 10:33:30;;;;;;;;;;;;;;;18.44;46.06;99503.22;5080379;28;19916;-72
2023/03/24 10:36:04;;;;;;;;;;;;;;;18.72;44.43;99495.41;5083109;28;20313;-72
2023/03/24 10:38:30;;;;;;;;;;;;;;;18.89;45.31;99500.41;5094361;28;19961;-72
2023/03/24 10:40:56;;;;;;;;;;;;;;;18.94;44.93;99487.88;5083247;28;20352;-72
2023/03/24 10:43:22;;;;;;;;;;;;;;;18.78;44.70;99488.16;5089076;28;20368;-72
2023/03/24 10:45:49;;;;;;;;;;;;;;;19.07;44.24;99482.78;5095951;28;20006;-72
2023/03/24 10:48:32;;;;;;;;;;;;;;;18.75;46.58;99484.06;5060691;28;19924;-73
2023/03/24 10:50:58;;;;;;;;;;;;;;;18.93;44.79;99474.94;5085479;28;19938;-72
2023/03/24 10:53:24;;;;;;;;;;;;;;;19.17;46.12;99475.56;5075335;28;19916;-73
2023/03/24 10:55:49;;;;;;;;;;;;;;;19.01;46.62;99479.50;5073652;28;19931;-74
2023/03/24 10:58:18;;;;;;;;;;;;;;;19.39;45.04;99478.53;5092761;28;19920;-72
2023/03/24 11:00:44;;;;;;;;;;;;;;;19.19;43.08;99473.13;5092668;28;19922;-75
2023/03/24 11:03:15;;;;;;;;;;;;;;;19.07;44.32;99465.78;5092547;28;19916;-72
2023/03/24 11:05:42;;;;;;;;;;;;;;;19.07;44.99;99457.25;5092284;28;20290;-71
2023/03/24 11:08:24;;;;;;;;;;;;;;;18.87;45.36;99451.81;5092495;28;19924;-70
2023/03/24 11:10:50;;;;;;;;;;;;;;;18.96;46.27;99445.00;5085655;28;20390;-70
2023/03/24 11:13:25;;;;;;;;;;;;;;;19.25;45.27;99448.06;5087275;28;19919;-71
2023/03/24 11:15:59;;;;;;;;;;;;;;;19.55;42.78;99438.50;5088705;28;19927;-70
2023/03/24 11:18:24;;;;;;;;;;;;;;;19.83;43.64;99437.03;5079906;28;20376;-72
2023/03/24 11:20:59;;;;;;;;;;;;;;;19.83;42.31;99426.47;5090285;28;19920;-74
2023/03/24 11:23:37;;;;;;;;;;;;;;;19.81;42.77;99422.44;5100436;28;19920;-71
2023/03/24 11:26:17;;;;;;;;;;;;;;;19.69;41.89;99417.91;5096487;28;19920;-72
2023/03/24 11:28:47;;;;;;;;;;;;;;;19.62;43.49;99413.84;5084636;28;19920;-71
2023/03/24 11:31:23;;;;;;;;;;;;;;;19.87;41.32;99400.94;5099191;28;20006;-72
2023/03/24 11:33:57;;;;;;;;;;;;;;;19.88;41.48;99400.56;5095930;28;19999;-71
2023/03/24 11:36:34;;;;;;;;;;;;;;;20.09;40.63;99395.38;5093102;28;19976;-71
2023/03/24 11:39:01;;;;;;;;;;;;;;;19.93;42.31;99396.56;5096698;28;19921;-72
2023/03/24 11:41:26;;;;;;;;;;;;;;;19.86;40.78;99387.97;5082061;28;19978;-71
2023/03/24 11:44:10;;;;;;;;;;;;;;;20.09;41.57;99384.84;5086179;28;19924;-73
2023/03/24 11:46:38;;;;;;;;;;;;;;;20.08;40.61;99382.38;5085364;28;20454;-70
2023/03/24 11:49:05;;;;;;;;;;;;;;;20.13;40.52;99370.63;5090979;28;20086;-72
2023/03/24 11:51:35;;;;;;;;;;;;;;;20.27;39.82;99364.16;5087080;28;19928;-73
2023/03/24 11:54:03;;;;;;;;;;;;;;;20.05;40.18;99369.81;5077130;28;19920;-74
2023/03/24 11:56:40;;;;;;;;;;;;;;;20.08;41.98;99356.84;5078803;28;19920;-74
2023/03/24 11:59:24;;;;;;;;;;;;;;;19.84;41.30;99359.97;5086898;28;20072;-74
2023/03/24 12:01:58;;;;;;;;;;;;;;;19.88;41.88;99343.78;5086734;28;19923;-73
2023/03/24 12:04:24;;;;;;;;;;;;;;;19.95;41.33;99336.53;5091502;28;19922;-71
2023/03/24 12:07:06;;;;;;;;;;;;;;;20.11;41.21;99342.66;5089523;28;20006;-73
2023/03/24 12:09:31;;;;;;;;;;;;;;;20.18;40.88;99336.97;5090400;28;19991;-70
2023/03/24 12:11:59;;;;;;;;;;;;;;;20.18;40.36;99339.00;5090684;28;19951;-72
2023/03/24 12:14:28;;;;;;;;;;;;;;;20.18;42.33;99328.44;5095401;28;19927;-72
2023/03/24 12:17:05;;;;;;;;;;;;;;;20.30;39.22;99332.09;5091044;28;19920;-72
2023/03/24 12:19:45;;;;;;;;;;;;;;;20.38;41.76;99330.06;5078495;28;20003;-74
2023/03/24 12:22:17;;;;;;;;;;;;;;;20.34;39.36;99316.69;5087856;28;20009;-73
2023/03/24 12:24:42;;;;;;;;;;;;;;;20.45;40.09;99313.88;5091964;28;19951;-71
2023/03/24 12:27:18;;;;;;;;;;;;;;;20.66;40.43;99311.41;5087094;28;19958;-70
2023/03/24 12:29:58;;;;;;;;;;;;;;;20.73;40.34;99308.53;5085565;28;20679;-73
2023/03/24 12:32:29;;;;;;;;;;;;;;;20.75;40.75;99306.09;5057513;28;19928;-71
2023/03/24 12:35:04;;;;;;;;;;;;;;;20.72;40.80;99302.06;5074068;28;19935;-70
2023/03/24 12:37:29;;;;;;;;;;;;;;;20.73;38.91;99306.53;5072073;28;20388;-71
2023/03/24 12:39:58;;;;;;;;;;;;;;;20.68;37.35;99297.59;5091831;28;19988;-71
2023/03/24 12:42:24;;;;;;;;;;;;;;;20.77;39.10;99301.63;5086528;28;19931;-71
2023/03/24 12:45:13;;;;;;;;;;;;;;;20.76;37.31;99296.38;5058700;28;20322;-71
2023/03/24 12:47:48;;;;;;;;;;;;;;;20.95;37.76;99285.78;5060447;28;20382;-71
2023/03/24 12:50:32;;;;;;;;;;;;;;;21.07;38.51;99290.22;5084919;28;19983;-71
2023/03/24 12:53:21;;;;;;;;;;;;;;;20.99;38.59;99280.91;5071271;28;20009;-72
2023/03/24 12:55:47;;;;;;;;;;;;;;;20.61;38.60;99276.50;5074244;28;19917;-72
2023/03/24 12:58:15;;;;;;;;;;;;;;;20.81;39.42;99281.78;5079233;28;19938;-73
2023/03/24 13:00:54;;;;;;;;;;;;;;;20.87;36.78;99279.31;5080987;28;19923;-71